createdAt,value
2023-04-16T00:00:35.342Z,99.99
2023-04-16T00:01:35.333Z,99.99
2023-04-16T00:02:35.501Z,99.99
2023-04-16T00:03:35.788Z,99.99
2023-04-16T00:04:35.386Z,99.99
2023-04-16T00:05:35.290Z,99.99
2023-04-16T00:06:35.280Z,99.99
2023-04-16T00:07:35.281Z,99.99
2023-04-16T00:08:35.248Z,99.99
2023-04-16T00:09:35.286Z,99.99
2023-04-16T00:10:35.239Z,99.99
2023-04-16T00:11:35.270Z,99.99
2023-04-16T00:12:35.216Z,99.99
2023-04-16T00:13:35.205Z,99.99
2023-04-16T00:14:35.191Z,99.99
2023-04-16T00:15:35.191Z,99.99
2023-04-16T00:16:35.216Z,99.99
2023-04-16T00:17:35.258Z,99.99
2023-04-16T00:18:35.155Z,99.99
2023-04-16T00:19:35.178Z,99.99
2023-04-16T00:20:35.121Z,99.99
2023-04-16T00:21:35.124Z,99.99
2023-04-16T00:22:35.105Z,99.99
2023-04-16T00:23:35.102Z,99.99
2023-04-16T00:24:35.100Z,99.99
2023-04-16T00:25:35.107Z,99.99
2023-04-16T00:26:35.062Z,99.99
2023-04-16T00:27:35.110Z,99.99
2023-04-16T00:28:35.049Z,99.99
2023-04-16T00:29:35.064Z,99.99
2023-04-16T00:30:35.031Z,99.99
2023-04-16T00:31:35.024Z,99.99
2023-04-16T00:32:35.038Z,99.99
2023-04-16T00:33:35.041Z,99.99
2023-04-16T00:34:35.028Z,99.99
2023-04-16T00:35:35.035Z,99.99
2023-04-16T00:36:35.003Z,99.99
2023-04-16T00:37:34.951Z,99.99
2023-04-16T00:38:34.928Z,99.99
2023-04-16T00:39:35.013Z,99.99
2023-04-16T00:40:34.905Z,99.99
2023-04-16T00:41:34.904Z,99.99
2023-04-16T00:42:35.021Z,99.99
2023-04-16T00:43:35.309Z,99.99
2023-04-16T00:44:34.855Z,99.99
2023-04-16T00:45:34.856Z,99.99
2023-04-16T00:46:34.932Z,99.99
2023-04-16T00:47:34.866Z,99.99
2023-04-16T00:48:34.824Z,99.99
2023-04-16T00:49:35.033Z,99.99
2023-04-16T00:50:34.790Z,99.99
2023-04-16T00:51:34.786Z,99.99
2023-04-16T00:52:34.834Z,99.99
2023-04-16T00:53:34.769Z,99.99
2023-04-16T00:54:34.755Z,99.99
2023-04-16T00:55:34.740Z,99.99
2023-04-16T00:56:34.718Z,99.99
2023-04-16T00:57:34.715Z,99.99
2023-04-16T00:58:34.747Z,99.99
2023-04-16T00:59:34.709Z,99.99
2023-04-16T01:00:34.680Z,99.99
2023-04-16T01:01:34.750Z,99.99
2023-04-16T01:02:34.877Z,99.99
2023-04-16T01:03:34.867Z,99.99
2023-04-16T01:04:34.663Z,99.99
2023-04-16T01:05:34.631Z,99.99
2023-04-16T01:06:34.621Z,99.99
2023-04-16T01:07:34.612Z,99.99
2023-04-16T01:08:34.672Z,99.99
2023-04-16T01:09:34.593Z,99.99
2023-04-16T01:10:34.575Z,99.99
2023-04-16T01:11:34.571Z,99.99
2023-04-16T01:12:34.559Z,99.99
2023-04-16T01:13:34.610Z,99.99
2023-04-16T01:14:34.540Z,99.99
2023-04-16T01:15:34.552Z,99.99
2023-04-16T01:16:34.520Z,99.99
2023-04-16T01:17:34.542Z,99.99
2023-04-16T01:18:34.501Z,99.99
2023-04-16T01:19:34.522Z,99.99
2023-04-16T01:20:34.468Z,99.99
2023-04-16T01:21:34.466Z,99.99
2023-04-16T01:22:34.479Z,99.99
2023-04-16T01:23:34.442Z,99.99
2023-04-16T01:24:34.435Z,99.99
2023-04-16T01:25:34.423Z,99.99
2023-04-16T01:26:34.399Z,99.99
2023-04-16T01:27:34.413Z,99.99
2023-04-16T01:28:34.415Z,99.99
2023-04-16T01:29:34.380Z,99.99
2023-04-16T01:30:34.378Z,99.99
2023-04-16T01:31:34.406Z,99.99
2023-04-16T01:32:34.368Z,99.99
2023-04-16T01:33:34.345Z,99.99
2023-04-16T01:34:34.355Z,99.99
2023-04-16T01:35:34.319Z,99.99
2023-04-16T01:36:34.320Z,99.99
2023-04-16T01:37:34.295Z,99.99
2023-04-16T01:38:34.322Z,99.99
2023-04-16T01:39:34.278Z,99.99
2023-04-16T01:40:34.277Z,99.99
2023-04-16T01:41:34.300Z,99.99
2023-04-16T01:42:34.243Z,99.99
2023-04-16T01:43:34.915Z,99.99
2023-04-16T01:44:34.225Z,99.99
2023-04-16T01:45:34.234Z,99.99
2023-04-16T01:46:34.260Z,99.99
2023-04-16T01:47:34.298Z,99.99
2023-04-16T01:48:34.208Z,99.99
2023-04-16T01:49:34.167Z,99.99
2023-04-16T01:50:34.191Z,99.99
2023-04-16T01:51:34.146Z,99.99
2023-04-16T01:52:34.139Z,99.99
2023-04-16T01:53:35.803Z,99.99
2023-04-16T01:54:34.114Z,99.99
2023-04-16T01:55:34.100Z,99.99
2023-04-16T01:56:34.135Z,99.99
2023-04-16T01:57:34.084Z,99.99
2023-04-16T01:58:34.100Z,99.99
2023-04-16T01:59:34.066Z,99.99
2023-04-16T02:00:34.065Z,99.99
2023-04-16T02:01:34.038Z,99.99
2023-04-16T02:02:34.188Z,99.99
2023-04-16T02:03:34.268Z,99.99
2023-04-16T02:04:34.003Z,99.99
2023-04-16T02:05:34.003Z,99.99
2023-04-16T02:06:33.989Z,99.99
2023-04-16T02:07:33.973Z,99.99
2023-04-16T02:08:33.962Z,99.99
2023-04-16T02:09:34.010Z,99.99
2023-04-16T02:10:33.943Z,99.99
2023-04-16T02:11:33.943Z,99.99
2023-04-16T02:12:33.913Z,99.99
2023-04-16T02:13:33.913Z,99.99
2023-04-16T02:14:34.005Z,99.99
2023-04-16T02:15:33.924Z,99.99
2023-04-16T02:16:33.914Z,99.99
2023-04-16T02:17:33.911Z,99.99
2023-04-16T02:18:33.850Z,99.99
2023-04-16T02:19:33.838Z,99.99
2023-04-16T02:20:33.826Z,99.99
2023-04-16T02:21:33.845Z,99.99
2023-04-16T02:22:33.856Z,99.99
2023-04-16T02:23:33.797Z,99.99
2023-04-16T02:24:33.786Z,99.99
2023-04-16T02:25:33.796Z,99.99
2023-04-16T02:26:33.756Z,99.99
2023-04-16T02:27:33.749Z,99.99
2023-04-16T02:28:33.741Z,99.99
2023-04-16T02:29:33.732Z,99.99
2023-04-16T02:30:33.713Z,99.99
2023-04-16T02:31:33.754Z,99.99
2023-04-16T02:32:33.727Z,99.99
2023-04-16T02:33:33.690Z,99.99
2023-04-16T02:34:33.681Z,99.99
2023-04-16T02:35:33.656Z,99.99
2023-04-16T02:36:33.688Z,99.99
2023-04-16T02:37:33.644Z,99.99
2023-04-16T02:38:33.637Z,99.99
2023-04-16T02:39:33.656Z,99.99
2023-04-16T02:40:33.610Z,99.99
2023-04-16T02:41:33.601Z,99.99
2023-04-16T02:42:33.587Z,99.99
2023-04-16T02:43:33.571Z,99.99
2023-04-16T02:44:33.582Z,99.99
2023-04-16T02:45:33.599Z,99.99
2023-04-16T02:46:33.547Z,99.99
2023-04-16T02:47:33.587Z,99.99
2023-04-16T02:48:33.574Z,99.99
2023-04-16T02:49:33.521Z,99.99
2023-04-16T02:50:33.534Z,99.99
2023-04-16T02:51:33.514Z,99.99
2023-04-16T02:52:33.490Z,99.99
2023-04-16T02:53:33.464Z,99.99
2023-04-16T02:54:33.509Z,99.99
2023-04-16T02:55:33.441Z,99.99
2023-04-16T02:56:33.444Z,99.99
2023-04-16T02:57:33.429Z,99.99
2023-04-16T02:58:33.436Z,99.99
2023-04-16T02:59:33.403Z,99.99
2023-04-16T03:00:33.439Z,99.99
2023-04-16T03:01:34.174Z,99.99
2023-04-16T03:02:33.567Z,99.99
2023-04-16T03:03:33.354Z,99.99
2023-04-16T03:04:33.404Z,99.99
2023-04-16T03:05:33.340Z,99.99
2023-04-16T03:06:33.368Z,99.99
2023-04-16T03:07:33.311Z,99.99
2023-04-16T03:08:33.314Z,99.99
2023-04-16T03:09:33.297Z,99.99
2023-04-16T03:10:33.341Z,99.99
2023-04-16T03:11:33.272Z,99.99
2023-04-16T03:12:33.319Z,99.99
2023-04-16T03:13:33.251Z,99.99
2023-04-16T03:14:33.244Z,99.99
2023-04-16T03:15:33.261Z,99.99
2023-04-16T03:16:40.242Z,99.99
2023-04-16T03:17:33.262Z,99.99
2023-04-16T03:18:33.484Z,99.99
2023-04-16T03:19:33.206Z,99.99
2023-04-16T03:20:33.172Z,99.99
2023-04-16T03:21:33.162Z,99.99
2023-04-16T03:22:33.210Z,99.99
2023-04-16T03:23:33.180Z,99.99
2023-04-16T03:24:33.173Z,99.99
2023-04-16T03:25:33.116Z,99.99
2023-04-16T03:26:33.105Z,99.99
2023-04-16T03:27:33.095Z,99.99
2023-04-16T03:28:33.126Z,99.99
2023-04-16T03:29:33.134Z,99.99
2023-04-16T03:30:33.065Z,99.99
2023-04-16T03:31:33.086Z,99.99
2023-04-16T03:32:33.094Z,99.99
2023-04-16T03:33:33.026Z,99.99
2023-04-16T03:34:33.027Z,99.99
2023-04-16T03:35:33.011Z,99.99
2023-04-16T03:36:33.012Z,99.99
2023-04-16T03:37:33.012Z,99.99
2023-04-16T03:38:32.978Z,99.99
2023-04-16T03:39:32.997Z,99.99
2023-04-16T03:40:32.968Z,99.99
2023-04-16T03:41:32.988Z,99.99
2023-04-16T03:42:32.968Z,99.99
2023-04-16T03:43:32.956Z,99.99
2023-04-16T03:44:32.912Z,99.99
2023-04-16T03:45:32.910Z,99.99
2023-04-16T03:46:33.014Z,99.99
2023-04-16T03:47:32.975Z,99.99
2023-04-16T03:48:32.913Z,99.99
2023-04-16T03:49:32.860Z,99.99
2023-04-16T03:50:32.864Z,99.99
2023-04-16T03:51:32.843Z,99.99
2023-04-16T03:52:32.861Z,99.99
2023-04-16T03:53:32.844Z,99.99
2023-04-16T03:54:32.830Z,99.99
2023-04-16T03:55:32.792Z,99.99
2023-04-16T03:56:32.793Z,99.99
2023-04-16T03:57:32.767Z,99.99
2023-04-16T03:58:32.804Z,99.99
2023-04-16T03:59:32.759Z,99.99
2023-04-16T04:00:32.792Z,99.99
2023-04-16T04:01:32.741Z,99.99
2023-04-16T04:02:32.880Z,99.99
2023-04-16T04:03:32.914Z,99.99
2023-04-16T04:04:32.799Z,99.99
2023-04-16T04:05:32.746Z,99.99
2023-04-16T04:06:32.688Z,99.99
2023-04-16T04:07:32.692Z,99.99
2023-04-16T04:08:32.721Z,99.99
2023-04-16T04:09:32.649Z,99.99
2023-04-16T04:10:32.639Z,99.99
2023-04-16T04:11:32.630Z,99.99
2023-04-16T04:12:32.614Z,99.99
2023-04-16T04:13:32.651Z,99.99
2023-04-16T04:14:32.624Z,99.99
2023-04-16T04:15:32.667Z,99.99
2023-04-16T04:16:32.677Z,99.99
2023-04-16T04:17:32.600Z,99.99
2023-04-16T04:18:32.716Z,99.99
2023-04-16T04:19:32.541Z,99.99
2023-04-16T04:20:32.542Z,99.99
2023-04-16T04:21:32.517Z,99.99
2023-04-16T04:22:32.512Z,99.93
2023-04-16T04:23:32.494Z,99.93
2023-04-16T04:24:32.531Z,99.93
2023-04-16T04:25:32.466Z,99.93
2023-04-16T04:26:32.540Z,99.83
2023-04-16T04:27:32.461Z,99.83
2023-04-16T04:28:32.444Z,99.83
2023-04-16T04:29:33.290Z,99.73
2023-04-16T04:30:32.433Z,99.63
2023-04-16T04:31:32.432Z,99.63
2023-04-16T04:32:32.450Z,99.63
2023-04-16T04:33:32.398Z,99.52
2023-04-16T04:34:32.426Z,99.52
2023-04-16T04:35:32.408Z,99.52
2023-04-16T04:36:32.389Z,99.52
2023-04-16T04:37:32.358Z,99.52
2023-04-16T04:38:32.325Z,99.52
2023-04-16T04:39:32.326Z,99.52
2023-04-16T04:40:32.352Z,99.52
2023-04-16T04:41:32.342Z,99.52
2023-04-16T04:42:32.326Z,99.52
2023-04-16T04:43:32.277Z,99.42
2023-04-16T04:44:32.266Z,99.42
2023-04-16T04:45:32.390Z,99.42
2023-04-16T04:46:32.250Z,99.42
2023-04-16T04:47:32.358Z,99.42
2023-04-16T04:48:32.275Z,99.42
2023-04-16T04:49:32.212Z,99.42
2023-04-16T04:50:32.207Z,99.32
2023-04-16T04:51:32.180Z,99.32
2023-04-16T04:52:32.244Z,99.32
2023-04-16T04:53:32.216Z,99.32
2023-04-16T04:54:32.151Z,99.32
2023-04-16T04:55:32.152Z,99.32
2023-04-16T04:56:32.129Z,99.32
2023-04-16T04:57:32.144Z,99.32
2023-04-16T04:58:32.147Z,99.32
2023-04-16T04:59:32.149Z,99.32
2023-04-16T05:00:32.094Z,99.21
2023-04-16T05:01:32.130Z,99.11
2023-04-16T05:02:32.144Z,99.11
2023-04-16T05:03:32.177Z,99.11
2023-04-16T05:04:32.067Z,99.11
2023-04-16T05:05:32.088Z,99.11
2023-04-16T05:06:32.042Z,99.11
2023-04-16T05:07:32.018Z,99.01
2023-04-16T05:08:32.007Z,99.01
2023-04-16T05:09:32.002Z,99.01
2023-04-16T05:10:31.993Z,99.01
2023-04-16T05:11:31.999Z,99.01
2023-04-16T05:12:31.971Z,99.01
2023-04-16T05:13:31.956Z,99.01
2023-04-16T05:14:31.952Z,99.01
2023-04-16T05:15:31.930Z,98.96
2023-04-16T05:16:31.972Z,99.01
2023-04-16T05:17:32.088Z,99.01
2023-04-16T05:18:31.923Z,98.96
2023-04-16T05:19:31.950Z,98.96
2023-04-16T05:20:31.884Z,98.96
2023-04-16T05:21:31.880Z,98.96
2023-04-16T05:22:31.868Z,98.86
2023-04-16T05:23:31.914Z,98.86
2023-04-16T05:24:31.867Z,98.86
2023-04-16T05:25:31.817Z,98.86
2023-04-16T05:26:31.844Z,98.86
2023-04-16T05:27:31.838Z,98.76
2023-04-16T05:28:31.800Z,98.76
2023-04-16T05:29:31.817Z,98.55
2023-04-16T05:30:31.867Z,98.45
2023-04-16T05:31:31.785Z,98.45
2023-04-16T05:32:31.777Z,98.35
2023-04-16T05:33:31.745Z,98.25
2023-04-16T05:34:31.757Z,98.25
2023-04-16T05:35:31.900Z,98.25
2023-04-16T05:36:31.760Z,98.14
2023-04-16T05:37:31.697Z,98.04
2023-04-16T05:38:31.685Z,97.83
2023-04-16T05:39:31.699Z,97.83
2023-04-16T05:40:31.718Z,97.73
2023-04-16T05:41:31.659Z,97.63
2023-04-16T05:42:31.710Z,97.53
2023-04-16T05:43:31.656Z,97.53
2023-04-16T05:44:31.636Z,97.42
2023-04-16T05:45:31.600Z,97.32
2023-04-16T05:46:31.712Z,97.22
2023-04-16T05:47:31.588Z,97.12
2023-04-16T05:48:31.572Z,97.02
2023-04-16T05:49:31.629Z,97.02
2023-04-16T05:50:31.551Z,97.02
2023-04-16T05:51:31.589Z,96.91
2023-04-16T05:52:31.535Z,96.91
2023-04-16T05:53:31.530Z,96.91
2023-04-16T05:54:31.548Z,96.91
2023-04-16T05:55:31.541Z,96.91
2023-04-16T05:56:31.504Z,96.91
2023-04-16T05:57:31.472Z,96.81
2023-04-16T05:58:31.531Z,96.81
2023-04-16T05:59:31.511Z,96.81
2023-04-16T06:00:31.452Z,96.81
2023-04-16T06:01:33.426Z,96.81
2023-04-16T06:02:31.558Z,96.70
2023-04-16T06:03:31.452Z,96.60
2023-04-16T06:04:31.470Z,96.60
2023-04-16T06:05:33.863Z,96.50
2023-04-16T06:06:31.487Z,96.50
2023-04-16T06:07:31.363Z,96.60
2023-04-16T06:08:31.406Z,96.50
2023-04-16T06:09:31.378Z,96.60
2023-04-16T06:10:31.359Z,96.50
2023-04-16T06:11:31.326Z,96.50
2023-04-16T06:12:31.371Z,96.50
2023-04-16T06:13:31.294Z,96.50
2023-04-16T06:14:31.290Z,96.50
2023-04-16T06:15:31.288Z,96.50
2023-04-16T06:16:31.313Z,96.40
2023-04-16T06:17:31.363Z,96.30
2023-04-16T06:18:31.272Z,96.30
2023-04-16T06:19:31.237Z,96.30
2023-04-16T06:20:31.230Z,96.30
2023-04-16T06:21:31.277Z,96.30
2023-04-16T06:22:31.209Z,96.30
2023-04-16T06:23:31.263Z,96.19
2023-04-16T06:24:31.193Z,96.19
2023-04-16T06:25:31.167Z,96.19
2023-04-16T06:26:31.153Z,96.15
2023-04-16T06:27:31.250Z,96.15
2023-04-16T06:28:31.881Z,96.15
2023-04-16T06:29:40.505Z,96.15
2023-04-16T06:30:32.140Z,96.15
2023-04-16T06:31:31.180Z,96.04
2023-04-16T06:32:31.144Z,96.04
2023-04-16T06:33:31.124Z,95.94
2023-04-16T06:34:31.075Z,95.94
2023-04-16T06:35:31.115Z,95.94
2023-04-16T06:36:31.099Z,95.84
2023-04-16T06:37:31.040Z,95.84
2023-04-16T06:38:31.057Z,95.84
2023-04-16T06:39:31.053Z,95.84
2023-04-16T06:40:31.006Z,95.84
2023-04-16T06:41:31.019Z,95.84
2023-04-16T06:42:30.992Z,95.84
2023-04-16T06:43:30.977Z,95.84
2023-04-16T06:44:30.961Z,95.84
2023-04-16T06:45:31.019Z,95.64
2023-04-16T06:46:30.983Z,95.64
2023-04-16T06:47:31.015Z,95.53
2023-04-16T06:48:30.930Z,95.53
2023-04-16T06:49:30.970Z,95.53
2023-04-16T06:50:32.760Z,95.53
2023-04-16T06:51:30.887Z,95.64
2023-04-16T06:52:30.877Z,95.64
2023-04-16T06:53:30.917Z,95.53
2023-04-16T06:54:30.868Z,95.43
2023-04-16T06:55:30.845Z,95.23
2023-04-16T06:56:30.836Z,95.23
2023-04-16T06:57:30.892Z,95.23
2023-04-16T06:58:30.815Z,95.23
2023-04-16T06:59:30.809Z,95.23
2023-04-16T07:00:30.796Z,95.23
2023-04-16T07:01:30.877Z,95.12
2023-04-16T07:02:30.943Z,95.12
2023-04-16T07:03:31.002Z,95.12
2023-04-16T07:04:30.807Z,95.02
2023-04-16T07:05:30.744Z,94.87
2023-04-16T07:06:30.742Z,94.87
2023-04-16T07:07:30.725Z,94.77
2023-04-16T07:08:30.709Z,94.77
2023-04-16T07:09:30.689Z,94.67
2023-04-16T07:10:30.724Z,94.46
2023-04-16T07:11:30.678Z,94.26
2023-04-16T07:12:30.680Z,94.26
2023-04-16T07:13:30.687Z,94.26
2023-04-16T07:14:30.641Z,94.15
2023-04-16T07:15:30.643Z,94.15
2023-04-16T07:16:30.688Z,94.05
2023-04-16T07:17:30.662Z,93.74
2023-04-16T07:18:30.604Z,93.74
2023-04-16T07:19:30.614Z,93.74
2023-04-16T07:20:30.620Z,93.74
2023-04-16T07:21:30.625Z,93.74
2023-04-16T07:22:30.571Z,93.64
2023-04-16T07:23:30.546Z,93.74
2023-04-16T07:24:30.533Z,93.54
2023-04-16T07:25:30.549Z,93.13
2023-04-16T07:26:30.532Z,92.93
2023-04-16T07:27:30.560Z,92.82
2023-04-16T07:28:30.487Z,92.93
2023-04-16T07:29:30.527Z,92.82
2023-04-16T07:30:30.477Z,92.93
2023-04-16T07:31:30.501Z,92.93
2023-04-16T07:32:30.467Z,92.93
2023-04-16T07:33:30.443Z,93.02
2023-04-16T07:34:30.456Z,92.88
2023-04-16T07:35:30.459Z,92.88
2023-04-16T07:36:30.396Z,92.78
2023-04-16T07:37:30.390Z,92.47
2023-04-16T07:38:30.380Z,92.36
2023-04-16T07:39:30.433Z,92.27
2023-04-16T07:40:30.384Z,92.27
2023-04-16T07:41:30.398Z,92.27
2023-04-16T07:42:30.336Z,92.27
2023-04-16T07:43:30.332Z,92.16
2023-04-16T07:44:30.326Z,91.96
2023-04-16T07:45:30.339Z,91.96
2023-04-16T07:46:39.325Z,91.96
2023-04-16T07:47:31.364Z,91.75
2023-04-16T07:48:30.343Z,91.44
2023-04-16T07:49:30.266Z,91.35
2023-04-16T07:50:30.303Z,91.44
2023-04-16T07:51:30.278Z,91.24
2023-04-16T07:52:30.310Z,91.35
2023-04-16T07:53:30.216Z,91.24
2023-04-16T07:54:30.209Z,91.14
2023-04-16T07:55:30.198Z,91.14
2023-04-16T07:56:30.195Z,91.14
2023-04-16T07:57:30.277Z,91.03
2023-04-16T07:58:30.170Z,90.73
2023-04-16T07:59:30.465Z,90.73
2023-04-16T08:00:30.164Z,90.73
2023-04-16T08:01:30.234Z,90.73
2023-04-16T08:02:30.333Z,90.73
2023-04-16T08:03:30.225Z,90.73
2023-04-16T08:04:30.297Z,90.52
2023-04-16T08:05:30.125Z,90.52
2023-04-16T08:06:30.082Z,90.52
2023-04-16T08:07:30.436Z,90.62
2023-04-16T08:08:30.071Z,90.62
2023-04-16T08:09:30.055Z,90.52
2023-04-16T08:10:30.059Z,90.58
2023-04-16T08:11:30.027Z,90.58
2023-04-16T08:12:30.024Z,90.58
2023-04-16T08:13:31.755Z,90.69
2023-04-16T08:14:30.037Z,90.69
2023-04-16T08:15:30.074Z,90.58
2023-04-16T08:16:30.051Z,90.58
2023-04-16T08:17:30.099Z,90.37
2023-04-16T08:18:29.965Z,89.97
2023-04-16T08:19:29.942Z,90.07
2023-04-16T08:20:29.956Z,89.87
2023-04-16T08:21:29.947Z,89.56
2023-04-16T08:22:29.962Z,89.45
2023-04-16T08:23:29.982Z,89.36
2023-04-16T08:24:29.899Z,89.25
2023-04-16T08:25:29.885Z,89.15
2023-04-16T08:26:29.863Z,89.31
2023-04-16T08:27:29.869Z,89.21
2023-04-16T08:28:29.939Z,89.00
2023-04-16T08:29:29.833Z,89.11
2023-04-16T08:30:29.835Z,88.90
2023-04-16T08:31:29.845Z,88.80
2023-04-16T08:32:29.833Z,88.70
2023-04-16T08:33:29.826Z,88.80
2023-04-16T08:34:29.825Z,88.49
2023-04-16T08:35:29.858Z,88.49
2023-04-16T08:36:29.755Z,88.35
2023-04-16T08:37:29.749Z,88.14
2023-04-16T08:38:29.831Z,88.14
2023-04-16T08:39:29.733Z,87.47
2023-04-16T08:40:29.716Z,87.67
2023-04-16T08:41:29.775Z,87.67
2023-04-16T08:42:29.695Z,87.67
2023-04-16T08:43:29.735Z,87.88
2023-04-16T08:44:29.677Z,87.88
2023-04-16T08:45:29.677Z,87.88
2023-04-16T08:46:29.672Z,88.08
2023-04-16T08:47:29.700Z,88.29
2023-04-16T08:48:29.638Z,88.29
2023-04-16T08:49:29.607Z,88.08
2023-04-16T08:50:29.646Z,87.98
2023-04-16T08:51:29.666Z,87.77
2023-04-16T08:52:29.578Z,87.57
2023-04-16T08:53:29.600Z,87.57
2023-04-16T08:54:29.608Z,87.63
2023-04-16T08:55:29.552Z,87.94
2023-04-16T08:56:29.535Z,88.04
2023-04-16T08:57:29.533Z,87.84
2023-04-16T08:58:29.527Z,87.63
2023-04-16T08:59:29.513Z,87.32
2023-04-16T09:00:29.550Z,87.32
2023-04-16T09:01:29.623Z,87.32
2023-04-16T09:02:29.691Z,87.43
2023-04-16T09:03:29.595Z,87.43
2023-04-16T09:04:29.848Z,87.59
2023-04-16T09:05:29.451Z,87.70
2023-04-16T09:06:29.431Z,87.79
2023-04-16T09:07:29.482Z,87.79
2023-04-16T09:08:29.402Z,87.79
2023-04-16T09:09:29.410Z,87.79
2023-04-16T09:10:29.520Z,88.04
2023-04-16T09:11:29.373Z,88.14
2023-04-16T09:12:29.365Z,88.14
2023-04-16T09:13:29.354Z,88.24
2023-04-16T09:14:29.349Z,88.14
2023-04-16T09:15:29.336Z,88.35
2023-04-16T09:16:29.381Z,88.24
2023-04-16T09:17:29.486Z,88.45
2023-04-16T09:18:29.313Z,88.56
2023-04-16T09:19:29.296Z,88.56
2023-04-16T09:20:29.291Z,88.56
2023-04-16T09:21:29.271Z,88.51
2023-04-16T09:22:29.376Z,88.31
2023-04-16T09:23:29.287Z,88.31
2023-04-16T09:24:29.234Z,88.51
2023-04-16T09:25:29.234Z,88.20
2023-04-16T09:26:29.307Z,87.90
2023-04-16T09:27:29.209Z,87.70
2023-04-16T09:28:29.223Z,87.70
2023-04-16T09:29:29.181Z,87.59
2023-04-16T09:30:29.175Z,87.49
2023-04-16T09:31:29.178Z,87.29
2023-04-16T09:32:29.191Z,87.18
2023-04-16T09:33:29.236Z,87.08
2023-04-16T09:34:29.130Z,87.08
2023-04-16T09:35:29.119Z,87.18
2023-04-16T09:36:30.882Z,87.38
2023-04-16T09:37:29.122Z,87.49
2023-04-16T09:38:29.081Z,87.49
2023-04-16T09:39:29.093Z,87.49
2023-04-16T09:40:29.057Z,87.59
2023-04-16T09:41:29.044Z,87.35
2023-04-16T09:42:29.071Z,87.55
2023-04-16T09:43:29.023Z,87.45
2023-04-16T09:44:29.022Z,87.45
2023-04-16T09:45:29.033Z,87.14
2023-04-16T09:46:29.021Z,86.32
2023-04-16T09:47:29.029Z,86.38
2023-04-16T09:48:29.765Z,86.29
2023-04-16T09:49:28.970Z,86.79
2023-04-16T09:50:28.955Z,86.59
2023-04-16T09:51:28.941Z,86.38
2023-04-16T09:52:28.922Z,86.04
2023-04-16T09:53:30.780Z,85.83
2023-04-16T09:54:28.908Z,85.53
2023-04-16T09:55:28.907Z,85.12
2023-04-16T09:56:28.897Z,84.81
2023-04-16T09:57:28.884Z,84.61
2023-04-16T09:58:28.888Z,84.50
2023-04-16T09:59:28.867Z,84.41
2023-04-16T10:00:28.843Z,84.61
2023-04-16T10:01:28.856Z,84.81
2023-04-16T10:02:28.882Z,84.91
2023-04-16T10:03:29.100Z,85.02
2023-04-16T10:04:28.811Z,85.12
2023-04-16T10:05:28.797Z,85.22
2023-04-16T10:06:28.807Z,84.91
2023-04-16T10:07:28.777Z,84.81
2023-04-16T10:08:28.813Z,84.09
2023-04-16T10:09:28.754Z,84.09
2023-04-16T10:10:28.734Z,84.00
2023-04-16T10:11:28.791Z,83.85
2023-04-16T10:12:28.752Z,83.54
2023-04-16T10:13:28.760Z,83.38
2023-04-16T10:14:28.738Z,83.28
2023-04-16T10:15:28.691Z,83.28
2023-04-16T10:16:28.683Z,83.44
2023-04-16T10:17:28.707Z,83.54
2023-04-16T10:18:28.638Z,83.54
2023-04-16T10:19:28.668Z,83.34
2023-04-16T10:20:28.639Z,83.04
2023-04-16T10:21:28.634Z,82.93
2023-04-16T10:22:28.613Z,83.04
2023-04-16T10:23:28.606Z,82.89
2023-04-16T10:24:28.588Z,82.79
2023-04-16T10:25:28.664Z,82.49
2023-04-16T10:26:28.624Z,82.18
2023-04-16T10:27:28.629Z,82.04
2023-04-16T10:28:28.566Z,81.73
2023-04-16T10:29:28.528Z,81.12
2023-04-16T10:30:28.576Z,80.91
2023-04-16T10:31:28.560Z,80.91
2023-04-16T10:32:28.718Z,81.12
2023-04-16T10:33:28.512Z,81.02
2023-04-16T10:34:28.529Z,80.91
2023-04-16T10:35:28.464Z,80.71
2023-04-16T10:36:28.451Z,80.61
2023-04-16T10:37:28.452Z,80.75
2023-04-16T10:38:28.473Z,80.75
2023-04-16T10:39:28.428Z,81.02
2023-04-16T10:40:28.463Z,81.12
2023-04-16T10:41:28.421Z,81.12
2023-04-16T10:42:28.401Z,81.23
2023-04-16T10:43:28.380Z,81.32
2023-04-16T10:44:28.410Z,80.82
2023-04-16T10:45:28.361Z,80.61
2023-04-16T10:46:28.402Z,80.51
2023-04-16T10:47:28.375Z,80.61
2023-04-16T10:48:33.141Z,80.61
2023-04-16T10:49:29.373Z,80.41
2023-04-16T10:50:28.311Z,80.41
2023-04-16T10:51:28.301Z,80.78
2023-04-16T10:52:28.300Z,81.09
2023-04-16T10:53:28.273Z,81.09
2023-04-16T10:54:28.269Z,81.29
2023-04-16T10:55:28.280Z,81.32
2023-04-16T10:56:28.245Z,81.32
2023-04-16T10:57:28.211Z,81.53
2023-04-16T10:58:28.245Z,81.53
2023-04-16T10:59:28.286Z,81.49
2023-04-16T11:00:28.191Z,81.18
2023-04-16T11:01:28.195Z,80.68
2023-04-16T11:02:28.402Z,80.47
2023-04-16T11:03:28.328Z,80.57
2023-04-16T11:04:30.411Z,80.37
2023-04-16T11:05:28.150Z,80.27
2023-04-16T11:06:28.147Z,80.23
2023-04-16T11:07:32.363Z,79.93
2023-04-16T11:08:28.116Z,79.32
2023-04-16T11:09:28.095Z,79.32
2023-04-16T11:10:28.148Z,78.80
2023-04-16T11:11:28.066Z,78.50
2023-04-16T11:12:28.071Z,78.30
2023-04-16T11:13:28.046Z,78.19
2023-04-16T11:14:28.265Z,78.39
2023-04-16T11:15:28.040Z,78.70
2023-04-16T11:16:28.106Z,78.60
2023-04-16T11:17:28.074Z,77.78
2023-04-16T11:18:27.995Z,78.09
2023-04-16T11:19:28.036Z,78.05
2023-04-16T11:20:30.043Z,78.16
2023-04-16T11:21:28.004Z,77.95
2023-04-16T11:22:27.959Z,78.16
2023-04-16T11:23:27.991Z,78.05
2023-04-16T11:24:28.012Z,77.95
2023-04-16T11:25:28.056Z,77.95
2023-04-16T11:26:27.937Z,77.34
2023-04-16T11:27:27.966Z,77.44
2023-04-16T11:28:27.892Z,77.24
2023-04-16T11:29:27.885Z,77.14
2023-04-16T11:30:27.863Z,77.85
2023-04-16T11:31:27.939Z,78.16
2023-04-16T11:32:27.929Z,78.66
2023-04-16T11:33:27.828Z,78.42
2023-04-16T11:34:27.834Z,78.22
2023-04-16T11:35:27.811Z,77.61
2023-04-16T11:36:28.074Z,77.61
2023-04-16T11:37:27.817Z,77.40
2023-04-16T11:38:27.805Z,77.10
2023-04-16T11:39:27.769Z,76.90
2023-04-16T11:40:27.814Z,76.69
2023-04-16T11:41:27.773Z,76.59
2023-04-16T11:42:27.780Z,76.90
2023-04-16T11:43:27.722Z,77.10
2023-04-16T11:44:27.749Z,77.00
2023-04-16T11:45:27.707Z,76.90
2023-04-16T11:46:28.073Z,76.49
2023-04-16T11:47:27.888Z,76.39
2023-04-16T11:48:27.780Z,76.28
2023-04-16T11:49:27.687Z,75.78
2023-04-16T11:50:27.804Z,75.67
2023-04-16T11:51:27.659Z,75.98
2023-04-16T11:52:27.650Z,76.08
2023-04-16T11:53:27.614Z,75.67
2023-04-16T11:54:27.638Z,75.98
2023-04-16T11:55:27.640Z,75.88
2023-04-16T11:56:27.590Z,75.88
2023-04-16T11:57:27.589Z,75.98
2023-04-16T11:58:27.571Z,76.08
2023-04-16T11:59:27.554Z,75.57
2023-04-16T12:00:27.578Z,75.47
2023-04-16T12:01:27.527Z,75.57
2023-04-16T12:02:27.690Z,75.57
2023-04-16T12:03:27.702Z,75.57
2023-04-16T12:04:27.575Z,75.37
2023-04-16T12:05:27.531Z,75.67
2023-04-16T12:06:27.526Z,75.88
2023-04-16T12:07:27.484Z,75.98
2023-04-16T12:08:27.531Z,75.57
2023-04-16T12:09:28.013Z,75.16
2023-04-16T12:10:27.480Z,74.86
2023-04-16T12:11:27.466Z,74.76
2023-04-16T12:12:27.671Z,74.96
2023-04-16T12:13:27.424Z,74.96
2023-04-16T12:14:27.404Z,75.16
2023-04-16T12:15:29.503Z,75.27
2023-04-16T12:16:27.448Z,75.06
2023-04-16T12:17:27.437Z,75.06
2023-04-16T12:18:27.434Z,75.27
2023-04-16T12:19:27.350Z,74.96
2023-04-16T12:20:27.418Z,75.06
2023-04-16T12:21:27.341Z,75.27
2023-04-16T12:22:27.321Z,75.16
2023-04-16T12:23:27.319Z,74.86
2023-04-16T12:24:27.329Z,74.65
2023-04-16T12:25:27.285Z,74.45
2023-04-16T12:26:27.348Z,74.35
2023-04-16T12:27:27.309Z,74.35
2023-04-16T12:28:27.331Z,74.45
2023-04-16T12:29:27.260Z,74.25
2023-04-16T12:30:27.263Z,74.55
2023-04-16T12:31:27.317Z,74.55
2023-04-16T12:32:27.244Z,74.82
2023-04-16T12:33:27.255Z,74.52
2023-04-16T12:34:34.202Z,74.41
2023-04-16T12:35:28.175Z,74.52
2023-04-16T12:36:27.293Z,74.32
2023-04-16T12:37:27.226Z,74.21
2023-04-16T12:38:27.193Z,74.01
2023-04-16T12:39:27.162Z,74.01
2023-04-16T12:40:27.181Z,73.71
2023-04-16T12:41:27.140Z,73.71
2023-04-16T12:42:27.108Z,73.19
2023-04-16T12:43:27.267Z,72.99
2023-04-16T12:44:27.103Z,72.99
2023-04-16T12:45:27.084Z,73.19
2023-04-16T12:46:27.152Z,73.60
2023-04-16T12:47:27.107Z,74.01
2023-04-16T12:48:27.035Z,74.32
2023-04-16T12:49:29.157Z,74.11
2023-04-16T12:50:27.076Z,73.87
2023-04-16T12:51:27.142Z,74.08
2023-04-16T12:52:26.996Z,74.28